Terminal Aerodrome Forecast
Issued by NWS Paducah, KY

Home | Current Version | Previous Version | Graphics & Text | Print | Product List | Glossary On
Versions: 1 2 3 4 5 6 7 8 9 10 11 12 13 14 15 16 17 18 19 20 21 22 23
766
FTUS43 KPAH 241120
TAFPAH
TAF
KPAH 241120Z 2412/2512 19012G18KT P6SM SCT025 BKN150
     FM241800 21015G25KT P6SM SCT015 BKN030
     FM250000 27012G20KT P6SM SCT030 BKN100
     FM250600 28012G20KT P6SM SCT100=

USA.gov is the U.S. government's official web portal to all federal, state and local government web resources and services.